Time;durP1;ratioP1;P1;durP2;ratioP2;P2;SDS_P1;SDS_P2;PMS_P1;PMS_P2;Temp;Humidity;BMP_temperature;BMP_pressure;BME280_temperature;BME280_humidity;BME280_pressure;Samples;Min_cycle;Max_cycle;Signal;HPM_P1;HPM_P2
2022/06/25 00:01:30;;;;;;;6.50;3.83;;;16.80;99.90;;;;;;4409015;28;657080;-69
2022/06/25 00:07:23;;;;;;;8.20;3.73;;;16.70;99.90;;;;;;4385528;28;658498;-68
2022/06/25 00:10:11;;;;;;;6.10;3.27;;;16.70;99.90;;;;;;4390560;28;657755;-68
2022/06/25 00:12:58;;;;;;;11.97;3.47;;;16.60;99.90;;;;;;4413902;28;656682;-68
2022/06/25 00:15:45;;;;;;;7.57;3.40;;;16.70;99.90;;;;;;4398610;28;657377;-69
2022/06/25 00:18:32;;;;;;;6.97;3.60;;;16.60;99.90;;;;;;4413319;28;656606;-69
2022/06/25 00:21:19;;;;;;;9.30;4.00;;;16.70;99.90;;;;;;4409378;28;656483;-68
2022/06/25 00:24:08;;;;;;;5.73;3.23;;;16.60;99.90;;;;;;4390793;28;656769;-68
2022/06/25 00:26:55;;;;;;;7.80;3.60;;;16.60;99.90;;;;;;4391433;28;656934;-69
2022/06/25 00:29:42;;;;;;;6.80;3.80;;;16.60;99.90;;;;;;4411162;28;656763;-68
2022/06/25 00:32:29;;;;;;;7.70;3.73;;;16.50;99.90;;;;;;4409159;28;656493;-68
2022/06/25 00:35:17;;;;;;;5.30;3.43;;;16.50;99.90;;;;;;4389786;28;656478;-69
2022/06/25 00:38:04;;;;;;;11.20;3.30;;;16.50;99.90;;;;;;4406961;28;656953;-68
2022/06/25 00:40:52;;;;;;;6.93;3.47;;;16.40;99.90;;;;;;4387143;28;657960;-68
2022/06/25 00:43:40;;;;;;;5.23;3.33;;;16.30;99.90;;;;;;4406906;28;656036;-68
2022/06/25 00:46:27;;;;;;;12.13;3.33;;;16.40;99.90;;;;;;4391249;28;656791;-68
2022/06/25 00:49:14;;;;;;;7.63;2.80;;;16.40;99.90;;;;;;4406478;28;657250;-68
2022/06/25 00:52:02;;;;;;;7.60;3.60;;;16.20;99.90;;;;;;4390047;28;656559;-68
2022/06/25 00:54:50;;;;;;;6.53;3.90;;;16.20;99.90;;;;;;4407668;28;656726;-68
2022/06/25 00:57:40;;;;;;;5.27;3.40;;;16.10;99.90;;;;;;4389411;28;657427;-68
2022/06/25 01:00:27;;;;;;;7.77;3.57;;;16.10;99.90;;;;;;4389362;28;657405;-68
2022/06/25 01:03:14;;;;;;;9.23;3.50;;;16.00;99.90;;;;;;4409555;28;656264;-68
2022/06/25 01:06:02;;;;;;;9.90;3.57;;;16.00;99.90;;;;;;4387458;28;657719;-69
2022/06/25 01:08:49;;;;;;;4.30;3.37;;;16.00;99.90;;;;;;4407374;28;656950;-68
2022/06/25 01:11:36;;;;;;;9.50;3.70;;;15.80;99.90;;;;;;4387846;28;656755;-69
2022/06/25 01:14:24;;;;;;;6.20;3.60;;;15.70;99.90;;;;;;4409762;28;657813;-68
2022/06/25 01:17:12;;;;;;;5.23;3.47;;;15.60;99.90;;;;;;4387851;28;657136;-68
2022/06/25 01:19:59;;;;;;;10.33;3.50;;;15.60;99.90;;;;;;4408545;28;656794;-69
2022/06/25 01:22:48;;;;;;;4.97;3.50;;;15.50;99.90;;;;;;4384389;28;657411;-69
2022/06/25 01:25:35;;;;;;;10.20;3.10;;;15.70;99.90;;;;;;4398315;28;656778;-69
2022/06/25 01:28:22;;;;;;;6.13;3.53;;;15.70;99.90;;;;;;4404415;28;659249;-68
2022/06/25 01:31:10;;;;;;;7.20;4.13;;;15.60;99.90;;;;;;4404449;28;656434;-69
2022/06/25 01:33:57;;;;;;;6.95;3.53;;;15.60;99.90;;;;;;4413712;28;656170;-68
2022/06/25 01:36:44;;;;;;;9.57;3.80;;;15.50;99.90;;;;;;4408916;28;656467;-68
2022/06/25 01:39:33;;;;;;;9.77;3.70;;;15.40;99.90;;;;;;4388910;28;656862;-68
2022/06/25 01:45:21;;;;;;;7.40;4.00;;;15.40;99.90;;;;;;4366887;28;657703;-69
2022/06/25 01:48:08;;;;;;;6.23;3.63;;;15.30;99.90;;;;;;4409411;28;657758;-68
2022/06/25 01:50:56;;;;;;;6.57;3.70;;;15.40;99.90;;;;;;4391342;28;657887;-69
2022/06/25 01:53:43;;;;;;;5.93;3.70;;;15.50;99.90;;;;;;4412212;28;656894;-68
2022/06/25 01:56:31;;;;;;;8.27;3.80;;;15.50;99.90;;;;;;4394757;28;656410;-69
2022/06/25 01:59:18;;;;;;;5.77;4.00;;;15.60;99.90;;;;;;4408933;28;656987;-68
2022/06/25 02:02:06;;;;;;;11.83;4.30;;;15.50;99.90;;;;;;4389270;28;656712;-68
2022/06/25 02:04:53;;;;;;;5.77;3.67;;;15.50;99.90;;;;;;4407499;28;658258;-68
2022/06/25 02:07:40;;;;;;;5.33;3.63;;;15.50;99.90;;;;;;4387343;28;656513;-69
2022/06/25 02:10:28;;;;;;;4.90;3.83;;;15.40;99.90;;;;;;4410353;28;658860;-68
2022/06/25 02:13:17;;;;;;;7.37;3.90;;;15.30;99.90;;;;;;4401330;28;656816;-69
2022/06/25 02:16:04;;;;;;;7.20;3.77;;;15.30;99.90;;;;;;4411634;28;656942;-68
2022/06/25 02:18:51;;;;;;;4.43;3.23;;;15.40;99.90;;;;;;4388003;28;657192;-68
2022/06/25 02:21:38;;;;;;;6.53;3.70;;;15.30;99.90;;;;;;4409912;28;656416;-68
2022/06/25 02:24:26;;;;;;;7.57;3.83;;;15.30;99.90;;;;;;4394000;28;656640;-69
2022/06/25 02:27:13;;;;;;;6.03;3.80;;;15.20;99.90;;;;;;4415346;28;656713;-68
2022/06/25 02:30:01;;;;;;;7.47;4.20;;;15.20;99.90;;;;;;4397930;28;656632;-69
2022/06/25 02:32:49;;;;;;;8.97;3.60;;;15.30;99.90;;;;;;4410591;28;657185;-69
2022/06/25 02:35:36;;;;;;;4.40;3.60;;;15.40;99.90;;;;;;4392887;28;657933;-69
2022/06/25 02:38:23;;;;;;;4.20;3.53;;;15.30;99.90;;;;;;4414658;28;656323;-68
2022/06/25 02:41:10;;;;;;;6.30;3.70;;;15.20;99.90;;;;;;4396079;28;658583;-70
2022/06/25 02:43:57;;;;;;;6.43;3.43;;;15.20;99.90;;;;;;4414209;28;656184;-68
2022/06/25 02:46:46;;;;;;;8.67;4.10;;;15.20;99.90;;;;;;4409052;28;657175;-68
2022/06/25 02:49:33;;;;;;;6.50;3.67;;;15.20;99.90;;;;;;4388330;28;657080;-69
2022/06/25 02:52:20;;;;;;;8.43;3.80;;;15.10;99.90;;;;;;4394978;28;656522;-69
2022/06/25 02:55:08;;;;;;;6.63;3.80;;;15.10;99.90;;;;;;4412616;28;657026;-69
2022/06/25 03:01:00;;;;;;;9.83;4.57;;;15.20;99.90;;;;;;4370378;28;656484;-69
2022/06/25 03:03:49;;;;;;;5.57;3.90;;;15.10;99.90;;;;;;4413360;28;656261;-68
2022/06/25 03:06:36;;;;;;;5.30;3.47;;;15.20;99.90;;;;;;4391852;28;658332;-69
2022/06/25 03:09:24;;;;;;;6.87;4.13;;;15.20;99.90;;;;;;4409710;28;657510;-69
2022/06/25 03:12:12;;;;;;;8.10;3.60;;;15.30;99.90;;;;;;4392215;28;656383;-68
2022/06/25 03:14:59;;;;;;;4.60;3.27;;;15.30;99.90;;;;;;4414839;28;656242;-69
2022/06/25 03:17:46;;;;;;;11.57;4.10;;;15.20;99.90;;;;;;4387519;28;656791;-68
2022/06/25 03:20:34;;;;;;;7.60;3.10;;;15.30;99.90;;;;;;4411463;28;658232;-68
2022/06/25 03:23:22;;;;;;;7.70;3.30;;;15.30;99.90;;;;;;4391775;28;656796;-69
2022/06/25 03:26:09;;;;;;;7.23;3.73;;;15.40;99.90;;;;;;4412159;28;656485;-68
2022/06/25 03:28:57;;;;;;;6.63;3.73;;;15.40;99.90;;;;;;4391569;28;657300;-69
2022/06/25 03:31:44;;;;;;;4.30;3.00;;;15.60;99.90;;;;;;4409837;28;656894;-69
2022/06/25 03:34:31;;;;;;;5.20;3.10;;;15.50;99.90;;;;;;4387415;28;656822;-69
2022/06/25 03:37:19;;;;;;;5.63;2.90;;;15.80;99.90;;;;;;4411307;28;657194;-69
2022/06/25 03:40:07;;;;;;;5.80;3.03;;;15.90;99.90;;;;;;4391317;28;656966;-68
2022/06/25 03:42:55;;;;;;;7.83;3.40;;;16.20;99.90;;;;;;4408974;28;656744;-69
2022/06/25 03:45:42;;;;;;;6.70;3.20;;;16.40;99.90;;;;;;4409235;28;657816;-69
2022/06/25 03:48:29;;;;;;;6.80;3.10;;;16.40;99.90;;;;;;4409124;28;657786;-69
2022/06/25 03:51:16;;;;;;;5.13;3.30;;;16.60;99.90;;;;;;4389440;28;656403;-69
2022/06/25 03:54:06;;;;;;;6.63;3.30;;;16.70;99.90;;;;;;4409772;28;657323;-69
2022/06/25 03:56:53;;;;;;;7.70;2.97;;;16.80;99.90;;;;;;4387109;28;657067;-68
2022/06/25 03:59:40;;;;;;;4.93;2.87;;;17.00;99.90;;;;;;4396192;28;656762;-69
2022/06/25 04:02:27;;;;;;;7.83;3.60;;;17.20;99.90;;;;;;4413506;28;657055;-68
2022/06/25 04:05:14;;;;;;;6.60;3.13;;;17.40;99.90;;;;;;4408684;28;656210;-70
2022/06/25 04:08:01;;;;;;;6.30;2.87;;;17.30;99.90;;;;;;4390422;28;656944;-70
2022/06/25 04:10:50;;;;;;;9.37;3.40;;;17.60;99.90;;;;;;4408166;28;656835;-68
2022/06/25 04:13:37;;;;;;;3.77;2.87;;;17.70;99.90;;;;;;4390385;28;657189;-69
2022/06/25 04:16:24;;;;;;;5.60;3.10;;;17.80;99.90;;;;;;4410270;28;657740;-69
2022/06/25 04:19:11;;;;;;;4.27;2.80;;;18.00;99.90;;;;;;4386427;28;657091;-69
2022/06/25 04:21:58;;;;;;;5.53;3.00;;;18.00;99.90;;;;;;4412245;28;656437;-69
2022/06/25 04:24:45;;;;;;;5.97;2.90;;;18.10;99.90;;;;;;4388581;28;656597;-70
2022/06/25 04:30:39;;;;;;;5.17;2.90;;;18.50;99.90;;;;;;4385090;28;656721;-69
2022/06/25 04:33:26;;;;;;;7.00;2.93;;;18.60;99.90;;;;;;4385941;28;656213;-69
2022/06/25 04:36:13;;;;;;;6.90;2.80;;;18.60;99.90;;;;;;4410928;28;657352;-68
2022/06/25 04:39:00;;;;;;;5.53;2.80;;;18.70;99.90;;;;;;4391344;28;657385;-69
2022/06/25 04:41:47;;;;;;;4.70;2.93;;;18.90;99.90;;;;;;4410921;28;656534;-69
2022/06/25 04:44:36;;;;;;;4.30;2.50;;;19.00;99.90;;;;;;4413536;28;657103;-69
2022/06/25 04:47:23;;;;;;;8.93;2.83;;;19.00;99.90;;;;;;4388080;28;657020;-69
2022/06/25 04:50:10;;;;;;;6.00;3.00;;;18.90;99.90;;;;;;4398816;28;657414;-70
2022/06/25 04:52:57;;;;;;;6.67;3.17;;;19.10;99.90;;;;;;4413333;28;657474;-68
2022/06/25 04:55:44;;;;;;;5.90;3.20;;;19.10;99.90;;;;;;4406463;28;657077;-69
2022/06/25 04:58:31;;;;;;;10.60;3.30;;;19.10;99.90;;;;;;4388312;28;656455;-70
2022/06/25 05:01:20;;;;;;;9.80;3.00;;;19.40;99.90;;;;;;4407938;28;658378;-69
2022/06/25 05:04:07;;;;;;;5.37;2.80;;;19.60;99.90;;;;;;4383949;28;658173;-69
2022/06/25 05:06:54;;;;;;;4.30;2.80;;;19.70;99.90;;;;;;4408130;28;656855;-69
2022/06/25 05:09:42;;;;;;;7.70;2.93;;;19.90;99.90;;;;;;4389343;28;656475;-69
2022/06/25 05:15:35;;;;;;;5.10;3.10;;;20.20;99.90;;;;;;4386341;28;656415;-69
2022/06/25 05:18:23;;;;;;;8.37;3.20;;;20.30;99.90;;;;;;4384137;28;658082;-69
2022/06/25 05:21:10;;;;;;;4.90;3.20;;;20.50;99.90;;;;;;4388940;28;657033;-69
2022/06/25 05:23:58;;;;;;;5.20;3.40;;;20.60;99.90;;;;;;4407761;28;658359;-69
2022/06/25 05:26:45;;;;;;;4.03;2.80;;;20.40;99.90;;;;;;4387673;28;656384;-69
2022/06/25 05:29:33;;;;;;;5.03;2.50;;;20.40;99.90;;;;;;4406734;28;657365;-69
2022/06/25 05:32:20;;;;;;;7.27;3.07;;;20.30;99.90;;;;;;4392797;28;657519;-70
2022/06/25 05:35:09;;;;;;;4.50;2.67;;;20.50;99.90;;;;;;4411935;28;656409;-69
2022/06/25 05:37:56;;;;;;;6.00;2.63;;;20.50;99.90;;;;;;4388790;28;656878;-69
2022/06/25 05:40:43;;;;;;;5.93;2.40;;;20.30;99.90;;;;;;4406591;28;657439;-69
2022/06/25 05:43:30;;;;;;;5.50;3.10;;;20.60;99.90;;;;;;4388288;28;656936;-70
2022/06/25 05:46:17;;;;;;;5.00;3.60;;;20.80;99.90;;;;;;4408997;28;658149;-69
2022/06/25 05:49:05;;;;;;;5.97;3.23;;;20.50;99.90;;;;;;4402463;28;656782;-70
2022/06/25 05:51:53;;;;;;;5.00;3.28;;;20.30;99.90;;;;;;4411014;28;656834;-69
2022/06/25 05:54:41;;;;;;;4.27;3.23;;;20.50;99.90;;;;;;4387565;28;657057;-70
2022/06/25 05:57:28;;;;;;;6.37;3.50;;;20.80;99.90;;;;;;4412333;28;657562;-69
2022/06/25 06:00:16;;;;;;;6.13;3.20;;;21.10;99.90;;;;;;4394486;28;656408;-70
2022/06/25 06:03:03;;;;;;;12.10;3.30;;;21.30;99.90;;;;;;4414452;28;657789;-69
2022/06/25 06:05:50;;;;;;;4.30;3.30;;;21.60;99.90;;;;;;4396300;28;657875;-70
2022/06/25 06:08:39;;;;;;;6.47;3.00;;;21.90;99.90;;;;;;4411881;28;656947;-69
2022/06/25 06:11:26;;;;;;;5.03;2.80;;;21.90;99.90;;;;;;4389764;28;657381;-68
2022/06/25 06:14:13;;;;;;;7.53;3.00;;;21.90;99.50;;;;;;4411200;28;657726;-69
2022/06/25 06:17:00;;;;;;;3.33;2.50;;;22.00;97.60;;;;;;4392338;28;656494;-70
2022/06/25 06:19:47;;;;;;;5.93;3.23;;;22.00;95.40;;;;;;4404867;28;657413;-69
2022/06/25 06:22:34;;;;;;;5.37;2.60;;;22.20;96.50;;;;;;4407423;28;656396;-68
2022/06/25 06:25:23;;;;;;;4.70;2.80;;;22.10;92.00;;;;;;4445098;28;657243;-65
2022/06/25 06:28:10;;;;;;;12.53;3.00;;;22.00;92.00;;;;;;4388003;28;657414;-65
2022/06/25 06:30:57;;;;;;;4.67;3.00;;;22.10;94.40;;;;;;4410053;28;658110;-65
2022/06/25 06:33:44;;;;;;;6.60;3.10;;;22.10;97.50;;;;;;4409351;28;657105;-65
2022/06/25 06:36:32;;;;;;;3.87;2.50;;;22.10;97.30;;;;;;4389265;28;656298;-65
2022/06/25 06:39:19;;;;;;;5.20;3.10;;;22.20;96.90;;;;;;4403351;28;656851;-65
2022/06/25 06:42:08;;;;;;;6.53;3.20;;;22.40;96.60;;;;;;4390516;28;656545;-65
2022/06/25 06:44:55;;;;;;;12.93;3.27;;;22.40;95.80;;;;;;4393202;28;656893;-65
2022/06/25 06:47:42;;;;;;;9.87;3.23;;;22.30;99.40;;;;;;4409778;28;657835;-65
2022/06/25 06:50:29;;;;;;;4.63;2.87;;;22.20;99.90;;;;;;4407207;28;655911;-65
2022/06/25 06:53:16;;;;;;;7.23;2.80;;;22.30;94.40;;;;;;4378920;28;657000;-65
2022/06/25 06:56:04;;;;;;;4.13;2.60;;;22.30;94.50;;;;;;4408681;28;658201;-65
2022/06/25 06:58:53;;;;;;;3.00;2.70;;;22.50;94.40;;;;;;4385054;28;656735;-65
2022/06/25 07:01:41;;;;;;;4.77;2.50;;;22.70;92.70;;;;;;4389605;28;657215;-65
2022/06/25 07:04:28;;;;;;;8.03;2.40;;;23.10;90.20;;;;;;4409731;28;658308;-65
2022/06/25 07:07:15;;;;;;;6.53;3.00;;;23.30;88.70;;;;;;4401186;28;657316;-65
2022/06/25 07:10:02;;;;;;;4.60;2.37;;;23.60;83.60;;;;;;4411939;28;657492;-65
2022/06/25 07:12:49;;;;;;;2.00;1.80;;;23.90;82.10;;;;;;4412407;28;657269;-65
2022/06/25 07:15:39;;;;;;;4.67;2.20;;;24.30;76.40;;;;;;4394930;28;656519;-65
2022/06/25 07:18:26;;;;;;;4.07;2.10;;;24.50;74.40;;;;;;4394618;28;657148;-65
2022/06/25 07:21:13;;;;;;;6.73;2.37;;;24.50;74.50;;;;;;4415411;28;657724;-65
2022/06/25 07:24:00;;;;;;;7.80;2.30;;;24.60;75.40;;;;;;4390813;28;656914;-65
2022/06/25 07:26:47;;;;;;;3.80;2.40;;;24.60;73.70;;;;;;4411078;28;658017;-65
2022/06/25 07:29:35;;;;;;;6.43;2.10;;;24.40;77.50;;;;;;4411173;28;656290;-65
2022/06/25 07:32:23;;;;;;;8.88;2.53;;;24.30;69.80;;;;;;4417290;28;656067;-65
2022/06/25 07:35:11;;;;;;;21.83;6.88;;;24.40;68.20;;;;;;4392050;28;656236;-65
2022/06/25 07:37:58;;;;;;;5.82;2.50;;;24.60;70.90;;;;;;4412291;28;659189;-65
2022/06/25 07:40:45;;;;;;;5.60;2.10;;;24.60;75.40;;;;;;4394404;28;656781;-65
2022/06/25 07:43:32;;;;;;;7.97;2.20;;;24.90;69.50;;;;;;4413133;28;656159;-66
2022/06/25 07:46:19;;;;;;;3.38;2.00;;;25.30;70.90;;;;;;4408819;28;657006;-65
2022/06/25 07:49:09;;;;;;;2.78;2.00;;;25.60;68.90;;;;;;4388029;28;656279;-65
2022/06/25 07:52:00;;;;;;;8.05;1.90;;;25.70;68.70;;;;;;4392023;28;657432;-66
2022/06/25 07:54:47;;;;;;;4.00;1.85;;;26.00;61.50;;;;;;4386171;28;657345;-65
2022/06/25 07:57:34;;;;;;;6.00;1.98;;;25.80;59.00;;;;;;4412110;28;657932;-65
2022/06/25 08:00:22;;;;;;;4.75;2.10;;;25.90;62.20;;;;;;4390491;28;657279;-65
2022/06/25 08:03:09;;;;;;;3.55;2.00;;;26.10;58.30;;;;;;4413783;28;656469;-65
2022/06/25 08:05:58;;;;;;;4.38;1.70;;;26.50;56.40;;;;;;4390623;28;656721;-65
2022/06/25 08:08:45;;;;;;;8.13;1.90;;;26.60;57.70;;;;;;4400735;28;656892;-65
2022/06/25 08:11:32;;;;;;;5.28;1.83;;;27.00;56.00;;;;;;4418000;28;656326;-65
2022/06/25 08:14:19;;;;;;;2.63;1.73;;;27.30;52.20;;;;;;4410204;28;657227;-66
2022/06/25 08:17:06;;;;;;;3.55;1.80;;;27.50;52.30;;;;;;4391220;28;656292;-66
2022/06/25 08:19:53;;;;;;;5.97;1.75;;;27.70;49.70;;;;;;4414019;28;657307;-65
2022/06/25 08:22:42;;;;;;;3.55;1.73;;;27.10;52.30;;;;;;4386990;28;656559;-65
2022/06/25 08:25:29;;;;;;;3.65;1.70;;;27.00;52.30;;;;;;4410455;28;656975;-65
2022/06/25 08:28:18;;;;;;;8.63;1.50;;;27.40;49.30;;;;;;4390498;28;656767;-65
2022/06/25 08:31:05;;;;;;;2.15;1.70;;;26.80;49.90;;;;;;4404451;28;656400;-66
2022/06/25 08:33:52;;;;;;;6.40;1.80;;;27.50;51.30;;;;;;4413412;28;657947;-66
2022/06/25 08:36:40;;;;;;;4.53;1.60;;;27.60;49.80;;;;;;4401940;28;656604;-65
2022/06/25 08:39:29;;;;;;;3.03;1.70;;;27.80;50.80;;;;;;4417484;28;657159;-65
2022/06/25 08:42:16;;;;;;;3.63;2.00;;;28.00;49.70;;;;;;4395305;28;656321;-65
2022/06/25 08:45:04;;;;;;;4.75;1.88;;;27.60;51.00;;;;;;4401966;28;657770;-65
2022/06/25 08:47:51;;;;;;;3.17;1.80;;;27.50;52.80;;;;;;4392197;28;656875;-65
2022/06/25 08:50:39;;;;;;;3.03;1.80;;;27.60;50.40;;;;;;4404629;28;657168;-65
2022/06/25 08:53:27;;;;;;;6.13;1.85;;;27.60;52.20;;;;;;4393485;28;656884;-66
2022/06/25 08:56:17;;;;;;;2.00;1.80;;;28.20;49.20;;;;;;4402239;28;656812;-66
2022/06/25 08:59:04;;;;;;;2.95;2.00;;;28.40;47.00;;;;;;4413214;28;656911;-66
2022/06/25 09:01:51;;;;;;;4.68;2.00;;;28.60;49.10;;;;;;4392696;28;656420;-66
2022/06/25 09:04:38;;;;;;;7.18;2.10;;;28.40;47.90;;;;;;4413507;28;657818;-65
2022/06/25 09:07:25;;;;;;;7.57;2.00;;;28.00;51.10;;;;;;4384537;28;656222;-65
2022/06/25 09:10:15;;;;;;;2.95;1.88;;;27.80;47.40;;;;;;4413028;28;658599;-65
2022/06/25 09:13:06;;;;;;;4.03;2.17;;;28.40;50.90;;;;;;4389506;28;657592;-65
2022/06/25 09:15:53;;;;;;;10.13;2.50;;;28.40;49.40;;;;;;4380618;28;657945;-65
2022/06/25 09:18:40;;;;;;;6.53;2.20;;;28.50;51.80;;;;;;4396718;28;658072;-65
2022/06/25 09:21:27;;;;;;;5.30;2.53;;;28.70;55.90;;;;;;4416441;28;657330;-65
2022/06/25 09:24:15;;;;;;;9.57;2.17;;;28.90;50.90;;;;;;4409684;28;656656;-65
2022/06/25 09:27:03;;;;;;;4.60;2.33;;;28.80;50.00;;;;;;4412068;28;657949;-65
2022/06/25 09:29:51;;;;;;;8.25;2.40;;;28.80;50.30;;;;;;4402407;28;656733;-65
2022/06/25 09:32:42;;;;;;;5.35;2.30;;;28.60;51.60;;;;;;4411991;28;657927;-65
2022/06/25 09:35:32;;;;;;;6.35;2.70;;;28.90;50.00;;;;;;4380037;28;656557;-65
2022/06/25 09:38:19;;;;;;;4.18;2.17;;;28.30;48.30;;;;;;4389715;28;656830;-66
2022/06/25 09:41:06;;;;;;;3.83;2.10;;;29.10;50.10;;;;;;4388127;28;656651;-66
2022/06/25 09:43:53;;;;;;;7.22;2.72;;;29.00;50.00;;;;;;4411976;28;656320;-66
2022/06/25 09:46:56;;;;;;;4.43;2.50;;;28.80;48.90;;;;;;4394143;28;656453;-66
2022/06/25 09:49:43;;;;;;;10.10;3.28;;;28.50;49.30;;;;;;4389749;28;656854;-66
2022/06/25 09:52:30;;;;;;;4.72;2.95;;;28.90;48.70;;;;;;4392071;28;657990;-66
2022/06/25 09:55:17;;;;;;;8.63;2.70;;;29.70;50.50;;;;;;4416102;28;657491;-66
2022/06/25 09:58:05;;;;;;;4.40;2.08;;;29.50;45.30;;;;;;4412284;28;657039;-66
2022/06/25 10:00:52;;;;;;;3.53;2.05;;;30.20;41.60;;;;;;4392693;28;657670;-66
2022/06/25 10:03:41;;;;;;;7.22;2.30;;;30.20;44.90;;;;;;4412077;28;657184;-66
2022/06/25 10:06:28;;;;;;;6.70;2.10;;;30.80;43.10;;;;;;4389125;28;657694;-66
2022/06/25 10:09:15;;;;;;;4.88;2.03;;;30.20;40.90;;;;;;4401744;28;657015;-66
2022/06/25 10:12:03;;;;;;;3.88;2.58;;;30.10;44.20;;;;;;4411637;28;657546;-66
2022/06/25 10:14:50;;;;;;;6.47;2.17;;;29.90;43.50;;;;;;4405612;28;657346;-66
2022/06/25 10:17:37;;;;;;;5.93;2.08;;;29.80;40.30;;;;;;4415661;28;656530;-66
2022/06/25 10:20:26;;;;;;;2.13;1.80;;;30.20;42.30;;;;;;4408276;28;657165;-66
2022/06/25 10:23:13;;;;;;;3.75;2.20;;;30.50;41.80;;;;;;4390658;28;657380;-66
2022/06/25 10:26:00;;;;;;;6.13;2.70;;;29.70;46.50;;;;;;4393086;28;656805;-66
2022/06/25 10:28:47;;;;;;;8.02;2.40;;;29.60;41.30;;;;;;4411852;28;657984;-66
2022/06/25 10:31:35;;;;;;;10.68;6.28;;;29.70;42.70;;;;;;4407045;28;656609;-66
2022/06/25 10:34:22;;;;;;;5.25;2.22;;;29.90;41.90;;;;;;4413364;28;658003;-66
2022/06/25 10:37:11;;;;;;;2.85;2.00;;;29.90;40.90;;;;;;4411235;28;656582;-66
2022/06/25 10:39:58;;;;;;;2.53;1.77;;;30.10;41.80;;;;;;4391909;28;656965;-66
2022/06/25 10:43:00;;;;;;;7.47;1.80;;;30.20;40.90;;;;;;4400242;28;656714;-66
2022/06/25 10:45:47;;;;;;;4.70;2.07;;;30.90;41.30;;;;;;4360493;28;657023;-66
2022/06/25 10:48:35;;;;;;;5.95;1.90;;;30.60;41.30;;;;;;4414893;28;656447;-66
2022/06/25 10:51:30;;;;;;;2.47;1.60;;;30.30;39.30;;;;;;4408333;28;657013;-66
2022/06/25 10:54:39;;;;;;;5.93;1.85;;;31.00;41.20;;;;;;4383674;28;657187;-66
2022/06/25 10:57:38;;;;;;;4.55;1.90;;;31.10;40.30;;;;;;4396072;28;656949;-66
2022/06/25 11:00:26;;;;;;;2.73;1.87;;;31.40;40.20;;;;;;4372292;28;656719;-66
2022/06/25 11:03:13;;;;;;;5.80;2.03;;;30.90;38.30;;;;;;4415366;28;657309;-66
2022/06/25 11:06:01;;;;;;;3.95;2.03;;;31.20;40.20;;;;;;4388933;28;656965;-66
2022/06/25 11:08:49;;;;;;;4.25;1.80;;;31.10;41.10;;;;;;4420960;28;657742;-66
2022/06/25 11:11:37;;;;;;;3.50;1.75;;;31.10;42.10;;;;;;4395919;28;656890;-66
2022/06/25 11:14:24;;;;;;;3.42;1.90;;;30.50;39.20;;;;;;4414990;28;656062;-66
2022/06/25 11:17:12;;;;;;;5.47;2.05;;;31.10;42.30;;;;;;4395502;28;656805;-66
2022/06/25 11:20:04;;;;;;;4.57;1.88;;;30.50;38.50;;;;;;4414280;28;657373;-66
2022/06/25 11:22:51;;;;;;;2.67;1.63;;;30.60;41.20;;;;;;4396515;28;656471;-66
2022/06/25 11:28:54;;;;;;;5.63;1.97;;;31.40;39.50;;;;;;4361590;28;657629;-66
2022/06/25 11:31:43;;;;;;;2.72;1.67;;;31.50;38.00;;;;;;4396009;28;656245;-66
2022/06/25 11:34:30;;;;;;;4.47;2.00;;;30.60;37.20;;;;;;4391519;28;656672;-66
2022/06/25 11:37:18;;;;;;;4.38;2.22;;;31.20;41.10;;;;;;4415123;28;657815;-66
2022/06/25 11:40:13;;;;;;;5.50;2.20;;;31.60;39.50;;;;;;4388175;28;657079;-66
2022/06/25 11:43:06;;;;;;;3.00;2.28;;;31.40;40.40;;;;;;4372063;28;656766;-66
2022/06/25 11:45:56;;;;;;;7.57;2.20;;;31.90;38.20;;;;;;4390957;28;657752;-66
2022/06/25 11:48:44;;;;;;;10.30;6.05;;;31.00;40.60;;;;;;4380003;28;656430;-66
2022/06/25 11:51:31;;;;;;;8.88;2.90;;;31.60;40.40;;;;;;4393532;28;658157;-66
2022/06/25 11:54:21;;;;;;;5.68;2.20;;;30.80;40.60;;;;;;4414498;28;657608;-66
2022/06/25 11:57:09;;;;;;;4.67;3.03;;;32.00;39.10;;;;;;4382672;28;657198;-66
2022/06/25 11:59:56;;;;;;;5.57;3.13;;;31.30;38.30;;;;;;4386612;28;656599;-66
2022/06/25 12:02:45;;;;;;;3.97;2.47;;;32.70;41.10;;;;;;4413858;28;656860;-66
2022/06/25 12:05:33;;;;;;;3.60;2.70;;;32.80;39.50;;;;;;4383554;28;658175;-66
2022/06/25 12:08:21;;;;;;;8.82;2.47;;;32.50;38.20;;;;;;4390374;28;656451;-66
2022/06/25 12:11:08;;;;;;;4.85;2.47;;;31.10;41.70;;;;;;4416664;28;656654;-66
2022/06/25 12:13:56;;;;;;;5.18;2.30;;;30.50;42.70;;;;;;4383787;28;656521;-66
2022/06/25 12:16:44;;;;;;;9.65;2.40;;;30.40;43.30;;;;;;4407753;28;656910;-66
2022/06/25 12:19:45;;;;;;;6.10;2.30;;;30.60;43.40;;;;;;4395720;28;656519;-66
2022/06/25 12:22:32;;;;;;;6.33;2.00;;;30.10;42.50;;;;;;4367125;28;657137;-66
2022/06/25 12:25:24;;;;;;;4.95;2.63;;;29.60;45.70;;;;;;4409762;28;656458;-66
2022/06/25 12:28:11;;;;;;;3.13;2.47;;;29.40;44.40;;;;;;4393306;28;656409;-66
2022/06/25 12:31:08;;;;;;;4.30;2.75;;;29.70;42.20;;;;;;4416280;28;657835;-66
2022/06/25 12:33:55;;;;;;;7.30;2.50;;;29.70;44.60;;;;;;4372703;28;657483;-66
2022/06/25 12:36:44;;;;;;;5.40;2.30;;;29.50;44.50;;;;;;4413911;28;657020;-66
2022/06/25 12:39:35;;;;;;;6.07;2.40;;;30.20;44.50;;;;;;4394924;28;656410;-66
2022/06/25 12:42:22;;;;;;;5.20;2.43;;;30.40;44.10;;;;;;4392305;28;657354;-66
2022/06/25 12:45:10;;;;;;;4.35;2.50;;;30.80;42.00;;;;;;4401067;28;656654;-66
2022/06/25 12:47:57;;;;;;;13.02;2.60;;;30.90;43.60;;;;;;4389463;28;658191;-66
2022/06/25 12:50:47;;;;;;;5.45;2.75;;;31.80;41.40;;;;;;4412406;28;658360;-66
2022/06/25 12:53:35;;;;;;;2.97;2.42;;;31.90;40.80;;;;;;4413064;28;656665;-66
2022/06/25 12:56:22;;;;;;;7.97;2.60;;;31.10;40.90;;;;;;4393841;28;657323;-66
2022/06/25 12:59:12;;;;;;;5.75;3.78;;;30.30;41.40;;;;;;4413270;28;656330;-66
2022/06/25 13:01:59;;;;;;;6.30;3.75;;;30.70;42.50;;;;;;4378879;28;656592;-66
2022/06/25 13:04:46;;;;;;;8.95;2.47;;;30.70;41.10;;;;;;4394055;28;656805;-66
2022/06/25 13:07:33;;;;;;;3.70;2.17;;;30.00;41.50;;;;;;4413197;28;657225;-66
2022/06/25 13:10:22;;;;;;;6.00;2.75;;;29.50;44.20;;;;;;4393911;28;656371;-66
2022/06/25 13:13:09;;;;;;;9.98;2.55;;;29.90;42.30;;;;;;4411573;28;656539;-66
2022/06/25 13:15:56;;;;;;;3.25;2.40;;;31.00;42.60;;;;;;4393677;28;656800;-66
2022/06/25 13:18:43;;;;;;;4.47;2.30;;;31.30;40.90;;;;;;4412703;28;657097;-66
2022/06/25 13:21:31;;;;;;;4.50;1.98;;;31.60;41.90;;;;;;4393762;28;656305;-66
2022/06/25 13:24:18;;;;;;;4.13;2.08;;;31.50;37.70;;;;;;4416749;28;657276;-66
2022/06/25 13:27:07;;;;;;;3.35;2.20;;;31.80;37.50;;;;;;4398395;28;656398;-66
2022/06/25 13:29:54;;;;;;;4.38;2.63;;;31.10;38.40;;;;;;4412567;28;656449;-66
2022/06/25 13:32:41;;;;;;;5.25;1.90;;;32.40;38.50;;;;;;4386733;28;656834;-66
2022/06/25 13:35:28;;;;;;;4.80;2.40;;;33.10;36.20;;;;;;4412182;28;656788;-66
2022/06/25 13:38:15;;;;;;;2.75;2.10;;;32.00;37.70;;;;;;4393686;28;656895;-66
2022/06/25 13:41:03;;;;;;;10.00;2.60;;;31.90;37.30;;;;;;4411321;28;658238;-66
2022/06/25 13:43:54;;;;;;;6.88;2.30;;;30.70;38.40;;;;;;4392447;28;657664;-66
2022/06/25 13:46:41;;;;;;;2.92;2.00;;;30.70;41.90;;;;;;4389118;28;656948;-66
2022/06/25 13:49:28;;;;;;;4.63;2.13;;;31.70;38.60;;;;;;4413198;28;658108;-66
2022/06/25 13:52:15;;;;;;;3.55;1.95;;;31.30;39.20;;;;;;4382474;28;656512;-66
2022/06/25 13:55:03;;;;;;;2.10;1.90;;;31.60;39.90;;;;;;4416255;28;657451;-66
2022/06/25 13:57:50;;;;;;;5.20;2.30;;;31.70;41.10;;;;;;4393120;28;656584;-66
2022/06/25 14:00:39;;;;;;;3.92;2.10;;;31.60;39.10;;;;;;4412585;28;656926;-66
2022/06/25 14:03:26;;;;;;;7.57;2.15;;;31.90;40.00;;;;;;4391392;28;657033;-66
2022/06/25 14:06:13;;;;;;;6.32;2.10;;;31.50;39.70;;;;;;4403353;28;657424;-66
2022/06/25 14:09:00;;;;;;;2.97;1.60;;;32.20;38.40;;;;;;4392616;28;656589;-66
2022/06/25 14:11:47;;;;;;;3.47;2.30;;;33.20;34.90;;;;;;4412656;28;657313;-66
2022/06/25 14:14:34;;;;;;;5.18;2.00;;;31.90;37.30;;;;;;4411212;28;656274;-66
2022/06/25 14:17:23;;;;;;;3.20;1.80;;;32.20;36.00;;;;;;4393121;28;656727;-66
2022/06/25 14:20:11;;;;;;;3.70;2.05;;;32.20;39.30;;;;;;4388427;28;656383;-65
2022/06/25 14:22:58;;;;;;;3.17;2.03;;;32.40;41.20;;;;;;4402042;28;657422;-65
2022/06/25 14:25:45;;;;;;;3.65;1.63;;;32.30;39.70;;;;;;4393219;28;656471;-65
2022/06/25 14:28:33;;;;;;;3.13;2.17;;;32.70;38.40;;;;;;4412451;28;657661;-65
2022/06/25 14:31:20;;;;;;;6.28;2.22;;;32.60;37.80;;;;;;4403652;28;656703;-65
2022/06/25 14:34:09;;;;;;;2.00;1.90;;;31.90;37.70;;;;;;4416836;28;656137;-65
2022/06/25 14:43:05;;;;;;;2.70;2.13;;;30.50;42.60;;;;;;4370649;28;656312;-65
2022/06/25 14:45:52;;;;;;;6.88;2.40;;;31.20;39.60;;;;;;4412240;28;658053;-65